Time;durP1;ratioP1;P1;durP2;ratioP2;P2;SDS_P1;SDS_P2;PMS_P1;PMS_P2;Temp;Humidity;BMP_temperature;BMP_pressure;BME280_temperature;BME280_humidity;BME280_pressure;Samples;Min_cycle;Max_cycle;Signal;HPM_P1;HPM_P2
2021/10/20 00:02:21;;;;;;;4.32;3.15;;;9.20;78.50;;;;;;4957563;28;20419;-67
2021/10/20 00:04:46;;;;;;;4.07;3.33;;;9.20;78.60;;;;;;4954472;28;20057;-67
2021/10/20 00:07:12;;;;;;;4.30;3.22;;;9.20;78.70;;;;;;4956372;28;20579;-66
2021/10/20 00:09:38;;;;;;;4.53;3.70;;;9.10;78.80;;;;;;4958587;28;20411;-66
2021/10/20 00:12:04;;;;;;;3.72;3.30;;;9.10;78.70;;;;;;4958290;28;20062;-67
2021/10/20 00:14:30;;;;;;;4.18;3.45;;;9.10;78.50;;;;;;4956168;28;20035;-67
2021/10/20 00:16:55;;;;;;;4.90;3.80;;;9.10;78.40;;;;;;4954854;28;20086;-66
2021/10/20 00:19:21;;;;;;;3.90;3.50;;;9.10;78.40;;;;;;4954150;28;20090;-67
2021/10/20 00:21:47;;;;;;;5.32;3.20;;;9.10;78.70;;;;;;4955001;28;20024;-66
2021/10/20 00:24:12;;;;;;;3.53;2.97;;;9.10;78.80;;;;;;4956781;28;20117;-66
2021/10/20 00:26:38;;;;;;;4.10;3.50;;;9.10;78.90;;;;;;4955370;28;20058;-66
2021/10/20 00:29:04;;;;;;;4.68;3.20;;;9.10;78.90;;;;;;4956308;28;20568;-66
2021/10/20 00:31:30;;;;;;;5.47;3.20;;;9.10;78.70;;;;;;4953580;28;20035;-67
2021/10/20 00:33:56;;;;;;;6.90;3.40;;;9.10;78.90;;;;;;4953635;28;20054;-67
2021/10/20 00:36:21;;;;;;;4.93;3.35;;;9.10;79.10;;;;;;4956187;28;20035;-67
2021/10/20 00:38:47;;;;;;;3.95;3.05;;;9.10;79.00;;;;;;4956588;28;20674;-66
2021/10/20 00:41:13;;;;;;;4.88;3.50;;;9.10;78.90;;;;;;4955606;28;20099;-67
2021/10/20 00:43:40;;;;;;;4.05;3.25;;;9.10;78.90;;;;;;4953971;28;20040;-67
2021/10/20 00:46:06;;;;;;;5.43;3.40;;;9.10;79.00;;;;;;4954877;28;20469;-66
2021/10/20 00:48:32;;;;;;;4.45;3.85;;;9.10;79.20;;;;;;4956009;28;20039;-67
2021/10/20 00:50:57;;;;;;;5.07;3.95;;;9.10;79.80;;;;;;4956677;28;20599;-67
2021/10/20 00:53:23;;;;;;;7.55;4.70;;;9.10;79.90;;;;;;4953750;28;20042;-67
2021/10/20 00:55:49;;;;;;;7.18;4.57;;;9.20;80.30;;;;;;4955594;28;20050;-67
2021/10/20 00:58:15;;;;;;;8.15;5.28;;;9.20;80.60;;;;;;4954782;28;20038;-66
2021/10/20 01:00:41;;;;;;;7.43;5.53;;;9.30;81.30;;;;;;4956908;28;20095;-67
2021/10/20 01:03:06;;;;;;;7.35;4.95;;;9.30;81.80;;;;;;4959568;28;20069;-67
2021/10/20 01:05:33;;;;;;;7.00;5.40;;;9.40;82.20;;;;;;4959257;28;21677;-67
2021/10/20 01:07:59;;;;;;;6.90;4.22;;;9.50;82.00;;;;;;4959576;28;20039;-66
2021/10/20 01:10:25;;;;;;;5.35;3.90;;;9.60;81.70;;;;;;4959418;28;20042;-68
2021/10/20 01:12:51;;;;;;;5.22;4.07;;;9.60;81.10;;;;;;4956000;28;20046;-67
2021/10/20 01:15:23;;;;;;;5.25;4.07;;;9.60;80.50;;;;;;4959645;28;20506;-67
2021/10/20 01:17:50;;;;;;;7.55;4.40;;;9.60;80.40;;;;;;4958931;28;20470;-66
2021/10/20 01:20:17;;;;;;;5.82;4.35;;;9.60;80.30;;;;;;4975581;28;20055;-65
2021/10/20 01:22:43;;;;;;;6.15;4.15;;;9.60;80.30;;;;;;4959390;28;20043;-67
2021/10/20 01:25:10;;;;;;;5.45;3.80;;;9.60;80.40;;;;;;4960050;28;20050;-67
2021/10/20 01:27:36;;;;;;;7.90;4.07;;;9.60;80.10;;;;;;4955586;28;20109;-67
2021/10/20 01:30:05;;;;;;;5.07;3.55;;;9.50;79.90;;;;;;4960195;28;20618;-67
2021/10/20 01:32:31;;;;;;;3.67;3.03;;;9.50;79.80;;;;;;4960619;28;20110;-66
2021/10/20 01:34:56;;;;;;;6.20;3.55;;;9.50;79.60;;;;;;4959163;28;20510;-66
2021/10/20 01:37:24;;;;;;;4.47;3.42;;;9.50;79.40;;;;;;4962829;28;20042;-66
2021/10/20 01:39:51;;;;;;;4.00;3.30;;;9.40;79.20;;;;;;4960055;28;20027;-67
2021/10/20 01:42:17;;;;;;;4.10;3.70;;;9.40;79.10;;;;;;4958359;28;20035;-67
2021/10/20 01:44:44;;;;;;;4.53;4.00;;;9.40;78.90;;;;;;4956994;28;20050;-67
2021/10/20 01:47:09;;;;;;;5.75;3.80;;;9.30;78.90;;;;;;4958863;28;20503;-67
2021/10/20 01:49:36;;;;;;;4.78;4.20;;;9.30;79.90;;;;;;4960144;28;20050;-66
2021/10/20 01:52:01;;;;;;;4.57;3.78;;;9.20;79.90;;;;;;4959311;28;20043;-67
2021/10/20 01:54:27;;;;;;;4.03;3.40;;;9.20;79.20;;;;;;4956781;28;20089;-66
2021/10/20 01:56:54;;;;;;;3.75;3.38;;;9.10;79.20;;;;;;4959638;28;20090;-67
2021/10/20 01:59:20;;;;;;;5.43;3.60;;;9.10;79.30;;;;;;4954797;28;20038;-67
2021/10/20 02:01:45;;;;;;;4.50;3.35;;;9.10;79.20;;;;;;4957329;28;20046;-67
2021/10/20 02:04:13;;;;;;;7.88;3.67;;;9.00;79.20;;;;;;4956789;28;20057;-65
2021/10/20 02:06:41;;;;;;;6.00;3.30;;;9.00;79.10;;;;;;4961229;28;20195;-67
2021/10/20 02:09:07;;;;;;;4.63;3.55;;;9.00;79.10;;;;;;4957043;28;20058;-66
2021/10/20 02:11:35;;;;;;;5.63;3.90;;;8.90;79.30;;;;;;4958097;28;20038;-67
2021/10/20 02:14:01;;;;;;;6.38;3.85;;;8.90;79.40;;;;;;4955929;28;20022;-67
2021/10/20 02:16:27;;;;;;;5.57;4.45;;;8.90;79.50;;;;;;4957220;28;20039;-67
2021/10/20 02:18:54;;;;;;;6.10;4.72;;;8.80;79.70;;;;;;4958812;28;20033;-67
2021/10/20 02:21:20;;;;;;;8.48;5.05;;;8.80;80.00;;;;;;4957575;28;20031;-66
2021/10/20 02:23:46;;;;;;;7.60;5.32;;;8.80;80.50;;;;;;4958957;28;20051;-67
2021/10/20 02:26:11;;;;;;;7.32;5.18;;;8.80;81.00;;;;;;4957969;28;20507;-67
2021/10/20 02:28:37;;;;;;;8.20;5.28;;;8.80;81.20;;;;;;4957657;28;20038;-67
2021/10/20 02:31:02;;;;;;;5.30;4.68;;;8.80;81.30;;;;;;4955782;28;20039;-67
2021/10/20 02:33:28;;;;;;;5.68;4.25;;;8.80;81.30;;;;;;4957201;28;20042;-65
2021/10/20 02:35:54;;;;;;;4.57;3.85;;;8.80;81.30;;;;;;4956513;28;20030;-67
2021/10/20 02:38:19;;;;;;;6.28;4.10;;;8.80;81.00;;;;;;4959175;28;20122;-66
2021/10/20 02:40:45;;;;;;;6.15;3.97;;;8.90;80.80;;;;;;4956849;28;20426;-66
2021/10/20 02:43:11;;;;;;;4.68;3.83;;;8.90;80.70;;;;;;4960445;28;20035;-64
2021/10/20 02:45:37;;;;;;;4.65;3.83;;;8.90;80.60;;;;;;4958546;28;20666;-67
2021/10/20 02:48:03;;;;;;;6.55;4.35;;;8.90;80.60;;;;;;4957610;28;20050;-67
2021/10/20 02:50:29;;;;;;;6.85;5.15;;;8.90;80.50;;;;;;4958733;28;20032;-67
2021/10/20 02:52:57;;;;;;;7.90;5.93;;;8.90;80.30;;;;;;4956174;28;20046;-67
2021/10/20 02:55:23;;;;;;;8.75;6.40;;;8.90;80.50;;;;;;4957942;28;20027;-67
2021/10/20 02:57:49;;;;;;;10.57;6.72;;;8.90;81.00;;;;;;4958134;28;20122;-68
2021/10/20 03:00:15;;;;;;;9.02;6.90;;;8.90;81.40;;;;;;4956606;28;20598;-67
2021/10/20 03:02:41;;;;;;;11.93;7.55;;;8.90;81.70;;;;;;4956791;28;20121;-66
2021/10/20 03:05:07;;;;;;;11.52;7.68;;;9.00;81.90;;;;;;4955956;28;20126;-66
2021/10/20 03:07:34;;;;;;;11.35;6.95;;;9.00;82.10;;;;;;4956197;28;20122;-66
2021/10/20 03:10:00;;;;;;;10.88;7.35;;;9.00;82.10;;;;;;4957333;28;20040;-67
2021/10/20 03:12:25;;;;;;;10.07;7.72;;;9.10;83.30;;;;;;4957512;28;20057;-66
2021/10/20 03:14:51;;;;;;;10.80;8.07;;;9.10;82.70;;;;;;4955984;28;20067;-67
2021/10/20 03:17:17;;;;;;;11.57;8.40;;;9.20;83.30;;;;;;4956104;28;20035;-66
2021/10/20 03:19:44;;;;;;;14.10;9.02;;;9.20;83.70;;;;;;4958004;28;20043;-67
2021/10/20 03:22:11;;;;;;;13.82;8.98;;;9.40;84.20;;;;;;4958460;28;20773;-67
2021/10/20 03:24:37;;;;;;;11.63;8.65;;;9.50;84.70;;;;;;4956500;28;20042;-66
2021/10/20 03:27:03;;;;;;;12.27;9.05;;;9.50;84.90;;;;;;4958578;28;20545;-66
2021/10/20 03:29:28;;;;;;;12.95;8.63;;;9.60;85.00;;;;;;4958156;28;20053;-67
2021/10/20 03:31:54;;;;;;;11.82;8.45;;;9.70;84.80;;;;;;4954985;28;20698;-65
2021/10/20 03:34:20;;;;;;;12.63;8.38;;;9.80;84.60;;;;;;4955497;28;20041;-65
2021/10/20 03:36:45;;;;;;;9.80;6.70;;;9.80;85.00;;;;;;4956099;28;20035;-67
2021/10/20 03:39:11;;;;;;;7.05;6.10;;;9.90;83.60;;;;;;4953297;28;20101;-66
2021/10/20 03:41:36;;;;;;;9.20;7.30;;;9.90;82.90;;;;;;4955987;28;20073;-67
2021/10/20 03:44:02;;;;;;;8.93;6.82;;;9.90;82.30;;;;;;4955771;28;20026;-66
2021/10/20 03:46:28;;;;;;;8.50;6.55;;;9.90;82.00;;;;;;4955547;28;20407;-67
2021/10/20 03:48:53;;;;;;;7.95;6.30;;;9.90;81.70;;;;;;4954035;28;20046;-66
2021/10/20 03:51:19;;;;;;;9.07;5.88;;;9.90;81.20;;;;;;4956658;28;20406;-66
2021/10/20 03:53:44;;;;;;;7.45;5.00;;;9.90;81.00;;;;;;4954233;28;20035;-67
2021/10/20 03:56:10;;;;;;;7.38;4.95;;;9.80;80.70;;;;;;4954383;28;20602;-66
2021/10/20 03:58:36;;;;;;;10.10;4.63;;;9.80;80.30;;;;;;4956218;28;20039;-67
2021/10/20 04:01:01;;;;;;;6.72;4.60;;;9.70;79.80;;;;;;4955126;28;20140;-67
2021/10/20 04:03:27;;;;;;;6.90;4.80;;;9.70;79.40;;;;;;4954756;28;20030;-66
2021/10/20 04:05:52;;;;;;;8.38;5.80;;;9.60;79.30;;;;;;4956357;28;20039;-67
2021/10/20 04:08:18;;;;;;;7.72;5.68;;;9.50;79.30;;;;;;4954803;28;20296;-67
2021/10/20 04:10:44;;;;;;;7.78;5.80;;;9.50;79.50;;;;;;4954586;28;20030;-66
2021/10/20 04:13:09;;;;;;;7.88;6.38;;;9.40;79.70;;;;;;4959251;28;20114;-66
2021/10/20 04:15:35;;;;;;;9.23;6.65;;;9.40;80.10;;;;;;4954757;28;20141;-66
2021/10/20 04:18:00;;;;;;;11.13;7.10;;;9.30;80.20;;;;;;4953922;28;20035;-66
2021/10/20 04:20:26;;;;;;;8.30;6.20;;;9.30;80.30;;;;;;4956900;28;20547;-66
2021/10/20 04:22:53;;;;;;;8.93;6.70;;;9.30;80.30;;;;;;4953215;28;20035;-67
2021/10/20 04:25:19;;;;;;;9.63;6.63;;;9.20;80.50;;;;;;4957530;28;20043;-66
2021/10/20 04:27:47;;;;;;;9.52;6.95;;;9.20;80.60;;;;;;4955896;28;20173;-66
2021/10/20 04:30:14;;;;;;;9.27;6.65;;;9.10;80.60;;;;;;4956792;28;20046;-66
2021/10/20 04:32:40;;;;;;;9.75;6.93;;;9.20;80.80;;;;;;4957066;28;20161;-66
2021/10/20 04:35:07;;;;;;;10.65;6.97;;;9.10;80.70;;;;;;4955765;28;20157;-66
2021/10/20 04:37:33;;;;;;;8.25;6.70;;;9.10;80.60;;;;;;4961621;28;20036;-67
2021/10/20 04:40:00;;;;;;;9.82;7.10;;;9.10;80.70;;;;;;4962000;28;20134;-67
2021/10/20 04:42:28;;;;;;;11.20;7.95;;;9.10;81.00;;;;;;4959510;28;20529;-67
2021/10/20 04:44:54;;;;;;;9.32;7.13;;;9.10;81.30;;;;;;4960544;28;20035;-67
2021/10/20 04:47:20;;;;;;;9.50;7.82;;;9.10;81.60;;;;;;4961287;28;20046;-67
2021/10/20 04:49:47;;;;;;;11.27;8.00;;;9.10;82.00;;;;;;4965822;28;20041;-67
2021/10/20 04:52:13;;;;;;;12.70;8.35;;;9.20;82.70;;;;;;4960715;28;20180;-66
2021/10/20 04:54:39;;;;;;;11.55;8.48;;;9.20;83.10;;;;;;4959950;28;20411;-66
2021/10/20 04:57:05;;;;;;;13.32;8.65;;;9.30;83.70;;;;;;4961897;28;20104;-66
2021/10/20 04:59:34;;;;;;;9.35;7.97;;;9.40;84.10;;;;;;4962115;28;20122;-67
2021/10/20 05:02:01;;;;;;;12.05;8.68;;;9.40;84.30;;;;;;4961688;28;20031;-67
2021/10/20 05:04:26;;;;;;;16.10;8.70;;;9.50;84.50;;;;;;4959432;28;20062;-67
2021/10/20 05:06:52;;;;;;;13.13;8.65;;;9.60;84.60;;;;;;4958691;28;20458;-66
2021/10/20 05:09:18;;;;;;;13.77;9.38;;;9.70;84.60;;;;;;4960191;28;20035;-66
2021/10/20 05:11:44;;;;;;;17.58;9.75;;;9.70;84.50;;;;;;4958201;28;20503;-67
2021/10/20 05:14:10;;;;;;;15.48;10.27;;;9.80;84.30;;;;;;4960254;28;20027;-66
2021/10/20 05:16:35;;;;;;;16.25;9.27;;;9.80;84.00;;;;;;4966660;28;20057;-65
2021/10/20 05:19:01;;;;;;;13.88;8.75;;;9.90;83.60;;;;;;4959742;28;20430;-66
2021/10/20 05:21:27;;;;;;;11.32;8.55;;;9.90;83.30;;;;;;4960488;28;20030;-66
2021/10/20 05:23:52;;;;;;;11.82;8.73;;;9.90;83.30;;;;;;4959966;28;20725;-66
2021/10/20 05:26:18;;;;;;;9.20;7.57;;;10.00;83.30;;;;;;4961452;28;20838;-67
2021/10/20 05:28:44;;;;;;;9.80;7.97;;;10.00;83.10;;;;;;4960618;28;20266;-67
2021/10/20 05:31:11;;;;;;;14.07;8.18;;;10.00;83.10;;;;;;4961839;28;20035;-66
2021/10/20 05:33:37;;;;;;;11.40;8.30;;;10.00;83.10;;;;;;4961403;28;20507;-67
2021/10/20 05:36:03;;;;;;;12.30;8.15;;;10.10;83.00;;;;;;4958578;28;20464;-67
2021/10/20 05:38:29;;;;;;;12.10;8.45;;;10.00;82.90;;;;;;4959239;28;20035;-66
2021/10/20 05:40:55;;;;;;;12.18;8.18;;;10.00;82.90;;;;;;4961215;28;20038;-67
2021/10/20 05:43:20;;;;;;;11.30;8.38;;;10.00;82.60;;;;;;4957381;28;20114;-67
2021/10/20 05:45:46;;;;;;;10.52;8.50;;;10.00;82.40;;;;;;4961283;28;20047;-67
2021/10/20 05:48:13;;;;;;;12.43;8.52;;;10.00;82.40;;;;;;4959533;28;20392;-67
2021/10/20 05:50:39;;;;;;;13.10;8.30;;;10.00;82.30;;;;;;4958939;28;20035;-67
2021/10/20 05:53:04;;;;;;;11.57;8.18;;;10.00;82.40;;;;;;4962352;28;20150;-67
2021/10/20 05:55:30;;;;;;;14.05;8.38;;;10.00;82.40;;;;;;4961455;28;20062;-66
2021/10/20 05:57:55;;;;;;;11.05;7.90;;;9.90;82.40;;;;;;4961965;28;20035;-67
2021/10/20 06:00:21;;;;;;;11.82;8.57;;;9.90;82.40;;;;;;4961755;28;20061;-66
2021/10/20 06:02:47;;;;;;;11.13;8.48;;;9.90;82.30;;;;;;4961106;28;20043;-67
2021/10/20 06:05:13;;;;;;;14.93;8.93;;;9.90;82.20;;;;;;4961403;28;20039;-67
2021/10/20 06:07:40;;;;;;;13.82;9.20;;;9.90;82.10;;;;;;4961429;28;20047;-67
2021/10/20 06:10:06;;;;;;;15.85;8.77;;;9.90;81.90;;;;;;4960711;28;20473;-66
2021/10/20 06:12:31;;;;;;;17.80;8.90;;;9.80;81.60;;;;;;4957481;28;20043;-67
2021/10/20 06:14:57;;;;;;;12.98;9.15;;;9.80;81.50;;;;;;4958401;28;20027;-67
2021/10/20 06:17:23;;;;;;;18.27;9.88;;;9.80;81.60;;;;;;4958836;28;20027;-67
2021/10/20 06:19:49;;;;;;;14.43;9.68;;;9.80;81.50;;;;;;4960337;28;20039;-67
2021/10/20 06:22:16;;;;;;;13.65;9.40;;;9.70;81.40;;;;;;4959714;28;20031;-66
2021/10/20 06:24:41;;;;;;;13.02;9.98;;;9.70;81.50;;;;;;4956654;28;20103;-67
2021/10/20 06:27:07;;;;;;;15.05;9.48;;;9.60;81.70;;;;;;4960850;28;20035;-67
2021/10/20 06:29:33;;;;;;;16.58;9.77;;;9.60;81.90;;;;;;4958752;28;20582;-66
2021/10/20 06:31:59;;;;;;;12.32;9.18;;;9.60;82.00;;;;;;4957758;28;20537;-66
2021/10/20 06:34:24;;;;;;;17.17;9.18;;;9.60;82.20;;;;;;4959130;28;20057;-67
2021/10/20 06:36:50;;;;;;;21.60;10.43;;;9.60;82.40;;;;;;4959235;28;20027;-67
2021/10/20 06:39:21;;;;;;;18.10;10.80;;;9.50;82.30;;;;;;4960735;28;20089;-65
2021/10/20 06:41:48;;;;;;;12.95;8.93;;;9.50;82.30;;;;;;4955276;28;20513;-67
2021/10/20 06:44:14;;;;;;;13.68;8.80;;;9.50;82.40;;;;;;4955577;28;20043;-68
2021/10/20 06:46:40;;;;;;;13.45;8.95;;;9.60;82.90;;;;;;4955150;28;22120;-66
2021/10/20 06:49:06;;;;;;;14.48;9.05;;;9.60;83.40;;;;;;4956286;28;20062;-67
2021/10/20 06:51:31;;;;;;;11.82;8.85;;;9.60;83.80;;;;;;4957158;28;20035;-66
2021/10/20 06:53:58;;;;;;;9.75;7.85;;;9.60;84.00;;;;;;4954997;28;20247;-67
2021/10/20 06:56:24;;;;;;;23.08;9.93;;;9.60;84.00;;;;;;4954352;28;20134;-67
2021/10/20 06:58:50;;;;;;;14.23;9.35;;;9.60;84.00;;;;;;4954485;28;20039;-67
2021/10/20 07:01:16;;;;;;;16.55;9.30;;;9.70;84.10;;;;;;4954531;28;20034;-67
2021/10/20 07:03:43;;;;;;;18.75;9.13;;;9.70;84.10;;;;;;4954275;28;20031;-67
2021/10/20 07:06:08;;;;;;;14.60;9.20;;;9.80;84.20;;;;;;4956821;28;20588;-66
2021/10/20 07:08:34;;;;;;;17.10;10.20;;;9.80;84.30;;;;;;4958996;28;20043;-67
2021/10/20 07:11:00;;;;;;;12.38;8.68;;;9.90;84.60;;;;;;4958053;28;20514;-67
2021/10/20 07:13:25;;;;;;;15.10;8.90;;;9.90;85.00;;;;;;4957739;28;20378;-67
2021/10/20 07:15:53;;;;;;;13.07;9.27;;;10.00;85.30;;;;;;4958192;28;20042;-67
2021/10/20 07:18:19;;;;;;;15.15;9.20;;;10.00;85.60;;;;;;4959805;28;20779;-67
2021/10/20 07:20:44;;;;;;;15.18;9.65;;;10.10;85.80;;;;;;4958237;28;20264;-67
2021/10/20 07:23:10;;;;;;;14.25;9.88;;;10.20;86.10;;;;;;4957698;28;20039;-66
2021/10/20 07:25:36;;;;;;;11.63;9.25;;;10.30;86.20;;;;;;4959486;28;20302;-67
2021/10/20 07:28:02;;;;;;;11.80;9.30;;;10.40;86.50;;;;;;4956301;28;20039;-67
2021/10/20 07:30:27;;;;;;;12.60;9.02;;;10.50;86.70;;;;;;4957752;28;20045;-66
2021/10/20 07:32:53;;;;;;;13.60;9.02;;;10.60;86.80;;;;;;4957745;28;20522;-66
2021/10/20 07:35:19;;;;;;;11.63;8.77;;;10.70;86.70;;;;;;4957823;28;20042;-67
2021/10/20 07:37:45;;;;;;;16.92;8.85;;;10.80;86.60;;;;;;4957464;28;20516;-67
2021/10/20 07:40:13;;;;;;;16.60;9.68;;;10.80;86.50;;;;;;4958256;28;20111;-67
2021/10/20 07:42:40;;;;;;;12.02;8.43;;;11.00;86.40;;;;;;4958059;28;20352;-67
2021/10/20 07:45:07;;;;;;;13.18;8.48;;;11.10;86.40;;;;;;4956103;28;20036;-67
2021/10/20 07:47:33;;;;;;;12.63;7.18;;;11.10;86.40;;;;;;4956080;28;20034;-67
2021/10/20 07:49:59;;;;;;;12.55;7.45;;;11.30;86.40;;;;;;4959375;28;20038;-67
2021/10/20 07:52:28;;;;;;;11.95;7.43;;;11.40;86.20;;;;;;4958436;28;20334;-67
2021/10/20 07:54:54;;;;;;;8.57;6.72;;;11.40;86.00;;;;;;4957498;28;20039;-67
2021/10/20 07:57:20;;;;;;;11.45;6.85;;;11.60;86.20;;;;;;4955131;28;20046;-67
2021/10/20 07:59:46;;;;;;;8.70;6.45;;;11.70;86.20;;;;;;4956032;28;20036;-67
2021/10/20 08:02:13;;;;;;;8.30;7.03;;;11.80;86.20;;;;;;4953955;28;20120;-67
2021/10/20 08:04:38;;;;;;;11.05;6.70;;;11.90;86.20;;;;;;4970382;28;20173;-67
2021/10/20 08:07:04;;;;;;;11.45;8.07;;;12.00;86.10;;;;;;4958413;28;20114;-66
2021/10/20 08:09:30;;;;;;;9.20;7.10;;;12.20;85.90;;;;;;4959904;28;20028;-66
2021/10/20 08:11:55;;;;;;;12.63;8.23;;;12.30;85.70;;;;;;4956992;28;20518;-66
2021/10/20 08:14:21;;;;;;;13.23;7.80;;;12.50;85.50;;;;;;4958464;28;20027;-65
2021/10/20 08:16:46;;;;;;;11.88;7.60;;;12.60;85.30;;;;;;4958263;28;20525;-67
2021/10/20 08:19:12;;;;;;;21.25;10.45;;;12.70;85.10;;;;;;4960114;28;20255;-67
2021/10/20 08:21:38;;;;;;;16.50;10.43;;;12.90;84.80;;;;;;4960053;28;20349;-67
2021/10/20 08:24:04;;;;;;;8.43;6.45;;;13.00;84.30;;;;;;4960773;28;20046;-67
2021/10/20 08:26:29;;;;;;;16.42;9.85;;;13.10;84.10;;;;;;4960907;28;20035;-66
2021/10/20 08:28:55;;;;;;;10.15;6.20;;;13.30;83.80;;;;;;4960486;28;20027;-67
2021/10/20 08:31:21;;;;;;;11.88;6.43;;;13.40;83.60;;;;;;4961211;28;20638;-67
2021/10/20 08:33:46;;;;;;;9.18;5.95;;;13.60;83.40;;;;;;4959631;28;20046;-67
2021/10/20 08:36:12;;;;;;;9.55;6.00;;;13.70;83.10;;;;;;4959947;28;20511;-67
2021/10/20 08:38:38;;;;;;;12.88;9.05;;;13.80;82.90;;;;;;4960372;28;20036;-67
2021/10/20 08:41:05;;;;;;;9.43;6.13;;;14.00;82.60;;;;;;4960382;28;20039;-67
2021/10/20 08:43:31;;;;;;;7.57;5.43;;;14.10;82.30;;;;;;4960406;28;20091;-67
2021/10/20 08:45:57;;;;;;;8.27;5.15;;;14.20;82.20;;;;;;4960211;28;20558;-67
2021/10/20 08:48:24;;;;;;;6.22;5.25;;;14.30;81.90;;;;;;4960436;28;20324;-67
2021/10/20 08:50:53;;;;;;;7.07;4.22;;;14.40;81.50;;;;;;4959978;28;20466;-67
2021/10/20 08:53:20;;;;;;;4.65;4.20;;;14.60;82.00;;;;;;4960676;28;20050;-67
2021/10/20 08:55:48;;;;;;;7.88;4.65;;;14.70;81.10;;;;;;4961561;28;20114;-67
2021/10/20 08:58:14;;;;;;;9.13;5.38;;;14.80;81.00;;;;;;4961867;28;20309;-67
2021/10/20 09:00:40;;;;;;;6.90;5.05;;;15.00;80.60;;;;;;4959858;28;20037;-67
2021/10/20 09:03:05;;;;;;;5.93;4.55;;;15.10;81.40;;;;;;4957685;28;20031;-67
2021/10/20 09:05:31;;;;;;;7.05;4.80;;;15.20;80.10;;;;;;4958152;28;20503;-68
2021/10/20 09:07:57;;;;;;;7.63;5.10;;;15.40;79.90;;;;;;4955956;28;20031;-66
2021/10/20 09:10:25;;;;;;;7.63;4.78;;;15.50;79.40;;;;;;4956024;28;20155;-68
2021/10/20 09:12:54;;;;;;;5.28;4.18;;;15.60;78.80;;;;;;4956818;28;20125;-67
2021/10/20 09:15:23;;;;;;;6.72;4.53;;;15.70;78.70;;;;;;4960190;28;20495;-67
2021/10/20 09:17:58;;;;;;;5.18;4.45;;;15.80;78.30;;;;;;4955950;28;20489;-67
2021/10/20 09:20:28;;;;;;;5.82;5.07;;;15.90;78.50;;;;;;4957796;28;20759;-67
2021/10/20 09:22:59;;;;;;;6.38;4.25;;;16.10;77.40;;;;;;4971668;28;20183;-67
2021/10/20 09:25:45;;;;;;;8.63;6.05;;;16.10;77.10;;;;;;4959767;28;20526;-66
2021/10/20 09:28:33;;;;;;;5.35;4.80;;;16.30;76.10;;;;;;4960277;28;20067;-67
2021/10/20 09:31:01;;;;;;;7.05;5.75;;;16.40;76.00;;;;;;4962337;28;20035;-66
2021/10/20 09:33:38;;;;;;;6.00;5.00;;;16.50;76.20;;;;;;4958031;28;20458;-67
2021/10/20 09:36:06;;;;;;;5.03;4.40;;;16.60;76.10;;;;;;4959113;28;20494;-67
2021/10/20 09:38:34;;;;;;;4.60;4.05;;;16.70;75.90;;;;;;4960339;28;20035;-67
2021/10/20 09:41:04;;;;;;;10.55;7.35;;;16.70;75.40;;;;;;4958045;28;20035;-66
2021/10/20 09:43:29;;;;;;;7.65;4.65;;;16.80;74.80;;;;;;4961140;28;20122;-66
2021/10/20 09:45:55;;;;;;;6.18;4.32;;;16.90;75.00;;;;;;4961796;28;20806;-66
2021/10/20 09:48:25;;;;;;;5.30;3.95;;;16.90;74.90;;;;;;4961986;28;20034;-67
2021/10/20 09:51:23;;;;;;;6.78;4.32;;;17.10;74.20;;;;;;4959196;28;20570;-67
2021/10/20 09:53:51;;;;;;;16.35;8.23;;;17.10;73.20;;;;;;4948716;28;20055;-67
2021/10/20 09:56:31;;;;;;;9.55;8.00;;;17.20;74.80;;;;;;4960730;28;20035;-67
2021/10/20 09:58:58;;;;;;;5.47;3.70;;;17.30;73.30;;;;;;4961782;28;20076;-67
2021/10/20 10:01:26;;;;;;;5.95;5.28;;;17.40;73.30;;;;;;4959923;28;20044;-67
2021/10/20 10:03:53;;;;;;;4.20;3.72;;;17.50;72.60;;;;;;4961025;28;20112;-67
2021/10/20 10:06:19;;;;;;;3.10;2.90;;;17.60;72.80;;;;;;4960951;28;20470;-67
2021/10/20 10:08:46;;;;;;;7.07;2.90;;;17.70;72.60;;;;;;4956381;28;20035;-67
2021/10/20 10:11:12;;;;;;;3.67;3.28;;;17.80;72.40;;;;;;4961173;28;20042;-67
2021/10/20 10:13:53;;;;;;;3.40;3.10;;;17.90;71.40;;;;;;4958912;28;20499;-67
2021/10/20 10:16:22;;;;;;;5.78;3.05;;;18.10;68.30;;;;;;4959833;28;20070;-67
2021/10/20 10:18:48;;;;;;;5.82;3.25;;;18.10;69.00;;;;;;4961239;28;20129;-67
2021/10/20 10:21:34;;;;;;;5.57;3.65;;;18.20;68.70;;;;;;4959686;28;20109;-67
2021/10/20 10:24:14;;;;;;;5.20;3.30;;;18.30;66.80;;;;;;4960797;28;20035;-67
2021/10/20 10:27:07;;;;;;;6.40;3.67;;;18.30;66.00;;;;;;4961863;28;20031;-67
2021/10/20 10:29:53;;;;;;;10.43;4.78;;;18.40;66.40;;;;;;4958628;28;20033;-67
2021/10/20 10:32:21;;;;;;;5.72;3.75;;;18.40;66.20;;;;;;4960274;28;20662;-68
2021/10/20 10:34:49;;;;;;;3.58;3.17;;;18.50;67.30;;;;;;4961480;28;20023;-67
2021/10/20 10:37:26;;;;;;;4.03;2.92;;;18.50;66.90;;;;;;4958513;28;20502;-67
2021/10/20 10:39:53;;;;;;;3.53;2.63;;;18.50;66.30;;;;;;4960419;28;20114;-67
2021/10/20 10:42:33;;;;;;;3.75;2.80;;;18.60;66.90;;;;;;4960222;28;20058;-67
2021/10/20 10:45:10;;;;;;;5.50;2.70;;;18.60;65.60;;;;;;4960593;28;20039;-67
2021/10/20 10:48:00;;;;;;;2.78;2.58;;;18.70;65.50;;;;;;4958786;28;20045;-67
2021/10/20 10:50:49;;;;;;;2.65;2.38;;;18.80;65.20;;;;;;4958290;28;20035;-67
2021/10/20 10:53:27;;;;;;;3.25;2.40;;;18.90;65.10;;;;;;4961092;28;20055;-67
2021/10/20 10:56:08;;;;;;;4.53;2.50;;;18.90;64.60;;;;;;4959785;28;20031;-67
2021/10/20 10:58:52;;;;;;;3.08;2.78;;;18.90;64.30;;;;;;4961605;28;20419;-66
2021/10/20 11:01:37;;;;;;;5.10;3.70;;;19.00;64.30;;;;;;4959760;28;20033;-66
2021/10/20 11:04:25;;;;;;;11.40;7.05;;;19.00;64.50;;;;;;4959750;28;20399;-66
2021/10/20 11:06:53;;;;;;;7.65;6.32;;;19.00;63.90;;;;;;4958143;28;20042;-66
2021/10/20 11:09:22;;;;;;;5.90;3.80;;;19.00;64.60;;;;;;4959348;28;20123;-67
2021/10/20 11:11:55;;;;;;;5.60;3.78;;;19.00;65.00;;;;;;4959934;28;20039;-66
2021/10/20 11:14:23;;;;;;;4.80;3.90;;;19.00;65.00;;;;;;4957374;28;20038;-66
2021/10/20 11:17:06;;;;;;;5.45;3.70;;;19.10;65.00;;;;;;4957676;28;20037;-66
2021/10/20 11:19:32;;;;;;;3.00;2.55;;;19.10;64.20;;;;;;4958908;28;20102;-67
2021/10/20 11:21:58;;;;;;;5.90;4.20;;;19.20;65.30;;;;;;4959312;28;20043;-67
2021/10/20 11:24:24;;;;;;;9.27;3.40;;;19.20;64.90;;;;;;4958956;28;20230;-66
2021/10/20 11:26:54;;;;;;;3.63;2.80;;;19.30;65.00;;;;;;4958657;28;20050;-66
2021/10/20 11:29:20;;;;;;;5.07;3.05;;;19.30;64.30;;;;;;4959407;28;20049;-66
2021/10/20 11:31:54;;;;;;;4.72;2.75;;;19.30;63.80;;;;;;4959017;28;20070;-67
2021/10/20 11:34:21;;;;;;;5.90;3.33;;;19.40;63.20;;;;;;4959410;28;20188;-66
2021/10/20 11:36:47;;;;;;;5.45;2.70;;;19.40;63.40;;;;;;4958808;28;20167;-67
2021/10/20 11:39:13;;;;;;;7.55;3.88;;;19.40;63.50;;;;;;4958587;28;20106;-67
2021/10/20 11:42:00;;;;;;;6.15;2.90;;;19.40;63.40;;;;;;4957433;28;20515;-67
2021/10/20 11:44:31;;;;;;;5.03;2.70;;;19.50;62.20;;;;;;4957755;28;20090;-67
2021/10/20 11:47:05;;;;;;;3.17;2.70;;;19.50;63.60;;;;;;4958181;28;22019;-66
2021/10/20 11:49:34;;;;;;;6.00;3.67;;;19.50;62.70;;;;;;4958754;28;20027;-67
2021/10/20 11:51:59;;;;;;;5.95;3.17;;;19.50;63.10;;;;;;4959522;28;20576;-66
2021/10/20 11:54:25;;;;;;;5.00;3.35;;;19.60;63.30;;;;;;4959690;28;20118;-67
2021/10/20 11:56:56;;;;;;;8.45;3.33;;;19.60;63.10;;;;;;4959956;28;20089;-67
2021/10/20 11:59:29;;;;;;;8.07;2.45;;;19.60;62.20;;;;;;4961493;28;20231;-66
2021/10/20 12:01:56;;;;;;;3.55;2.17;;;19.60;62.30;;;;;;4960170;28;20041;-67
2021/10/20 12:04:24;;;;;;;4.40;2.58;;;19.60;63.00;;;;;;4960974;28;20030;-67
2021/10/20 12:06:56;;;;;;;2.88;2.50;;;19.70;62.90;;;;;;4960099;28;20506;-66
2021/10/20 12:09:23;;;;;;;3.72;2.50;;;19.70;62.60;;;;;;4960656;28;20458;-66
2021/10/20 12:11:50;;;;;;;5.18;2.55;;;19.70;62.60;;;;;;4961140;28;20082;-67
2021/10/20 12:14:19;;;;;;;5.30;2.22;;;19.70;62.70;;;;;;4960275;28;20042;-66
2021/10/20 12:16:45;;;;;;;4.45;2.30;;;19.80;62.90;;;;;;4960302;28;20097;-65
2021/10/20 12:19:12;;;;;;;4.30;2.13;;;19.80;62.90;;;;;;4959983;28;20045;-66
2021/10/20 12:21:40;;;;;;;5.45;4.50;;;19.90;62.70;;;;;;4960768;28;20043;-67
2021/10/20 12:24:06;;;;;;;4.50;2.60;;;19.90;62.30;;;;;;4960505;28;20035;-67
2021/10/20 12:26:35;;;;;;;2.95;2.20;;;19.90;62.40;;;;;;4959681;28;20035;-67
2021/10/20 12:29:03;;;;;;;3.13;2.58;;;20.00;62.40;;;;;;4959631;28;20024;-67
2021/10/20 12:31:29;;;;;;;2.45;2.22;;;20.00;62.30;;;;;;4960194;28;20486;-67
2021/10/20 12:33:56;;;;;;;8.30;2.67;;;20.00;61.90;;;;;;4959226;28;20031;-67
2021/10/20 12:36:25;;;;;;;2.60;2.40;;;20.00;61.90;;;;;;4961485;28;20055;-66
2021/10/20 12:38:52;;;;;;;2.88;2.10;;;20.00;61.80;;;;;;4960411;28;20502;-67
2021/10/20 12:41:22;;;;;;;3.53;1.77;;;20.10;61.60;;;;;;4962059;28;20526;-67
2021/10/20 12:43:52;;;;;;;3.85;1.90;;;20.10;61.50;;;;;;4960788;28;20070;-66
2021/10/20 12:46:19;;;;;;;4.47;2.28;;;20.10;61.90;;;;;;4960175;28;20134;-66
2021/10/20 12:48:46;;;;;;;2.35;2.08;;;20.10;61.80;;;;;;4960413;28;20093;-67
2021/10/20 12:51:15;;;;;;;3.97;2.20;;;20.20;61.90;;;;;;4961456;28;20027;-67